Time;durP1;ratioP1;P1;durP2;ratioP2;P2;SDS_P1;SDS_P2;PMS_P1;PMS_P2;Temp;Humidity;BMP_temperature;BMP_pressure;BME280_temperature;BME280_humidity;BME280_pressure;Samples;Min_cycle;Max_cycle;Signal;HPM_P1;HPM_P2
2022/10/06 00:02:16;;;;;;;8.25;4.63;;;;;;;9.65;78.92;99700.22;4955816;29;20508;-77
2022/10/06 00:04:42;;;;;;;9.55;4.45;;;;;;;9.61;78.88;99691.00;4953576;28;20051;-76
2022/10/06 00:07:08;;;;;;;9.95;4.60;;;;;;;9.60;78.78;99703.03;4955474;28;20660;-77
2022/10/06 00:09:34;;;;;;;11.43;4.68;;;;;;;9.64;79.00;99704.06;4955614;28;20054;-89
2022/10/06 00:12:01;;;;;;;9.77;4.57;;;;;;;9.63;78.27;99696.97;4954480;29;20039;-77
2022/10/06 00:16:56;;;;;;;6.93;4.10;;;;;;;9.44;78.54;99681.72;4936438;29;20052;-82
2022/10/06 00:21:51;;;;;;;8.95;4.05;;;;;;;9.48;78.29;99691.75;4951942;29;20455;-77
2022/10/06 00:24:17;;;;;;;7.13;4.07;;;;;;;9.58;79.10;99693.53;4952135;29;20039;-75
2022/10/06 00:26:46;;;;;;;5.13;3.83;;;;;;;9.55;78.69;99700.38;4954004;29;20046;-77
2022/10/06 00:31:40;;;;;;;8.60;3.70;;;;;;;9.61;78.46;99698.38;4952529;28;20079;-77
2022/10/06 00:34:06;;;;;;;6.17;3.67;;;;;;;9.50;78.52;99696.91;4935427;29;20039;-76
2022/10/06 01:20:18;;;;;;;9.85;4.60;;;;;;;9.74;78.47;99714.00;5128607;27;1589490;-83
2022/10/06 01:22:47;;;;;;;7.60;4.05;;;;;;;9.69;78.28;99705.88;5150206;27;20042;-75
2022/10/06 01:30:15;;;;;;;13.25;5.50;;;;;;;9.72;78.18;99710.75;5135679;27;20046;-75
2022/10/06 01:40:08;;;;;;;11.70;5.28;;;;;;;9.77;78.08;99713.41;5150480;27;20030;-83
2022/10/06 01:42:37;;;;;;;11.38;5.55;;;;;;;9.79;78.53;99711.19;5150092;27;20051;-75
2022/10/06 01:45:04;;;;;;;9.27;4.68;;;;;;;9.87;78.04;99709.72;5121869;27;20046;-75
2022/10/06 01:50:00;;;;;;;8.57;4.80;;;;;;;9.88;78.02;99709.41;5150292;27;20122;-75
2022/10/06 01:52:30;;;;;;;7.65;4.70;;;;;;;9.91;78.05;99713.47;5122986;28;20110;-75
2022/10/06 01:54:56;;;;;;;10.55;4.22;;;;;;;9.90;77.75;99706.38;5136152;27;20264;-83
2022/10/06 01:57:23;;;;;;;9.38;5.00;;;;;;;9.91;78.12;99718.91;5149871;27;20514;-75
2022/10/06 02:02:18;;;;;;;9.40;4.68;;;;;;;9.91;78.38;99724.38;5129482;27;20039;-75
2022/10/06 02:04:45;;;;;;;6.50;4.13;;;;;;;9.93;77.76;99711.22;5129229;27;20130;-76
2022/10/06 02:07:11;;;;;;;9.35;4.78;;;;;;;9.86;77.95;99711.59;5145377;27;20596;-75
2022/10/06 02:09:44;;;;;;;8.68;5.03;;;;;;;9.80;78.28;99707.34;5149673;27;20043;-75
2022/10/06 02:14:39;;;;;;;7.93;4.93;;;;;;;9.83;78.22;99716.84;5149505;27;20064;-76
2022/10/06 02:17:05;;;;;;;9.43;4.70;;;;;;;9.86;77.64;99711.59;5129343;27;20053;-75
2022/10/06 02:19:32;;;;;;;7.72;4.75;;;;;;;9.86;77.71;99719.00;5126483;27;20104;-75
2022/10/06 02:21:58;;;;;;;8.05;4.63;;;;;;;9.91;78.05;99713.47;5135479;27;20043;-76
2022/10/06 02:24:24;;;;;;;10.38;5.65;;;;;;;9.96;77.70;99716.09;5117369;27;20622;-75
2022/10/06 02:26:52;;;;;;;8.27;5.28;;;;;;;9.84;77.64;99699.38;5133670;27;20091;-76
2022/10/06 02:34:16;;;;;;;16.50;5.60;;;;;;;10.05;77.54;99717.03;5135614;27;20043;-75
2022/10/06 02:36:42;;;;;;;8.57;4.70;;;;;;;10.06;77.24;99720.56;5125749;27;20035;-78
2022/10/06 02:39:09;;;;;;;8.98;4.80;;;;;;;10.06;76.82;99713.19;5096241;28;20047;-76
2022/10/06 02:41:35;;;;;;;21.98;5.78;;;;;;;10.09;76.92;99720.78;5114719;27;20031;-74
2022/10/06 02:44:02;;;;;;;9.23;5.47;;;;;;;10.17;77.02;99715.75;5102962;27;20043;-74
2022/10/06 02:46:30;;;;;;;;;;;;;;;10.22;76.71;99719.19;5116984;27;20138;-77
2022/10/06 02:48:56;;;;;;;13.60;5.20;;;;;;;10.22;76.67;99724.66;5115039;27;19915;-76
2022/10/06 02:51:22;;;;;;;10.40;5.40;;;;;;;10.21;76.84;99733.16;5132855;27;20035;-83
2022/10/06 02:53:49;;;;;;;7.13;4.63;;;;;;;10.19;76.73;99733.44;5116766;27;20088;-77
2022/10/06 02:56:22;;;;;;;9.70;5.07;;;;;;;10.16;76.84;99730.50;5126315;27;20653;-82
2022/10/06 03:01:24;;;;;;;7.72;4.85;;;;;;;9.99;77.07;99737.34;5115955;27;20118;-78
2022/10/06 03:06:23;;;;;;;10.40;4.95;;;;;;;9.93;77.82;99741.25;5117255;27;20122;-77
2022/10/06 03:09:04;;;;;;;11.15;4.55;;;;;;;9.82;77.66;99726.97;5111774;27;20047;-81
2022/10/06 03:14:00;;;;;;;9.50;5.00;;;;;;;9.79;78.12;99727.56;5114383;27;20039;-79
2022/10/06 03:16:44;;;;;;;10.57;5.97;;;;;;;9.80;78.14;99728.38;5097124;27;20307;-77
2022/10/06 03:19:19;;;;;;;13.45;5.18;;;;;;;9.80;78.34;99744.75;5096778;28;20492;-77
2022/10/06 03:21:47;;;;;;;7.57;5.20;;;;;;;9.77;78.40;99735.25;5092355;28;20062;-77
2022/10/06 03:24:13;;;;;;;7.37;5.40;;;;;;;9.81;78.41;99740.94;5096091;28;20036;-76
2022/10/06 03:26:46;;;;;;;8.00;5.47;;;;;;;9.82;78.45;99732.44;5093606;28;20127;-77
2022/10/06 03:29:15;;;;;;;7.57;5.47;;;;;;;9.83;78.20;99736.81;5112443;28;20039;-77
2022/10/06 03:31:45;;;;;;;7.50;5.57;;;;;;;9.91;78.20;99746.22;5113118;28;20496;-77
2022/10/06 03:34:14;;;;;;;;;;;;;;;9.83;78.38;99741.44;5106904;28;20074;-80
2022/10/06 03:36:41;;;;;;;8.70;5.07;;;;;;;9.79;78.81;99738.47;5095817;28;19931;-87
2022/10/06 03:39:08;;;;;;;9.30;5.75;;;;;;;9.77;78.86;99735.25;5101625;28;20052;-78
2022/10/06 03:44:04;;;;;;;10.80;5.65;;;;;;;9.73;78.78;99722.47;5112800;28;20040;-86
2022/10/06 03:46:34;;;;;;;16.00;5.70;;;;;;;9.65;78.89;99713.06;5113476;28;20035;-78
2022/10/06 03:49:03;;;;;;;10.20;5.82;;;;;;;9.82;78.79;99728.88;5111831;27;20566;-87
2022/10/06 03:51:33;;;;;;;9.57;5.95;;;;;;;9.84;78.48;99732.16;5110399;28;20044;-78
2022/10/06 03:54:01;;;;;;;10.10;6.70;;;;;;;9.83;78.67;99727.78;5097042;28;20086;-77
2022/10/06 03:56:31;;;;;;;12.90;6.60;;;;;;;9.83;78.55;99730.50;5106767;28;20454;-80
2022/10/06 03:59:01;;;;;;;10.30;5.93;;;;;;;9.89;78.27;99737.50;5092523;28;20051;-81
2022/10/06 04:01:43;;;;;;;12.02;7.00;;;;;;;9.92;78.25;99738.84;5091945;28;20050;-83
2022/10/06 04:04:13;;;;;;;10.10;5.97;;;;;;;9.77;78.05;99727.06;5108067;28;20069;-81
2022/10/06 04:06:43;;;;;;;8.95;5.95;;;;;;;9.95;78.44;99755.44;5108502;28;20535;-79
2022/10/06 04:09:15;;;;;;;10.32;6.50;;;;;;;9.97;78.01;99755.97;5104450;28;20027;-76
2022/10/06 04:11:42;;;;;;;14.48;6.45;;;;;;;9.97;78.14;99742.31;5093619;28;20460;-76
2022/10/06 04:14:11;;;;;;;64.57;21.80;;;;;;;10.09;77.86;99764.47;5100562;28;20036;-75
2022/10/06 04:16:44;;;;;;;97.65;26.67;;;;;;;10.14;78.05;99768.25;5095454;28;20096;-76
2022/10/06 04:19:13;;;;;;;52.83;18.95;;;;;;;10.23;77.37;99759.09;5096617;28;20048;-75
2022/10/06 04:21:45;;;;;;;51.00;18.02;;;;;;;10.37;77.53;99767.34;5090988;28;20079;-75
2022/10/06 04:24:17;;;;;;;27.02;10.48;;;;;;;10.33;77.15;99749.91;5101159;28;20381;-78
2022/10/06 04:26:47;;;;;;;16.02;7.43;;;;;;;10.14;77.38;99746.41;5107939;28;20032;-76
2022/10/06 04:29:14;;;;;;;11.25;6.85;;;;;;;10.19;77.29;99762.69;5110229;28;20185;-78
2022/10/06 04:31:43;;;;;;;22.80;10.70;;;;;;;10.19;78.17;99763.50;5111126;28;20087;-78
2022/10/06 04:34:16;;;;;;;20.48;8.32;;;;;;;10.20;77.53;99765.16;5090399;28;20040;-75
2022/10/06 04:36:44;;;;;;;18.58;8.60;;;;;;;10.17;77.47;99771.19;5098867;28;20440;-79
2022/10/06 04:39:14;;;;;;;11.52;7.05;;;;;;;10.22;77.89;99770.28;5112055;28;20385;-76
2022/10/06 04:41:46;;;;;;;13.88;8.18;;;;;;;10.12;77.71;99763.09;5111123;28;20036;-84
2022/10/06 04:44:16;;;;;;;13.63;7.47;;;;;;;10.04;77.94;99769.25;5110872;28;20043;-75
2022/10/06 04:46:43;;;;;;;12.30;7.50;;;;;;;9.99;78.49;99770.13;5107827;28;20528;-75
2022/10/06 04:49:11;;;;;;;12.05;7.20;;;;;;;10.05;78.73;99766.19;5090626;28;20039;-75
2022/10/06 04:51:38;;;;;;;14.70;7.47;;;;;;;10.08;78.43;99773.78;5091727;28;20070;-74
2022/10/06 04:54:04;;;;;;;11.75;6.50;;;;;;;10.00;78.59;99769.03;5091768;28;20047;-80
2022/10/06 04:56:33;;;;;;;12.45;7.97;;;;;;;9.99;78.76;99772.84;5090112;28;20036;-74
2022/10/06 04:59:02;;;;;;;14.85;7.70;;;;;;;10.01;78.84;99772.56;5091997;28;20126;-73
2022/10/06 05:01:35;;;;;;;14.95;7.60;;;;;;;10.07;78.60;99777.66;5091004;28;20121;-74
2022/10/06 05:04:05;;;;;;;13.98;7.30;;;;;;;10.13;78.63;99775.63;5090797;28;20046;-74
2022/10/06 05:06:36;;;;;;;12.38;6.65;;;;;;;10.12;78.80;99783.00;5091726;28;20036;-74
2022/10/06 05:09:07;;;;;;;13.48;7.05;;;;;;;10.10;78.86;99770.78;5105200;28;20046;-73
2022/10/06 05:11:34;;;;;;;26.85;12.63;;;;;;;10.05;79.17;99760.72;5090348;28;20511;-73
2022/10/06 05:14:02;;;;;;;17.00;9.13;;;;;;;10.14;78.89;99771.00;5107601;28;20497;-74
2022/10/06 05:16:31;;;;;;;11.90;7.03;;;;;;;10.18;79.01;99775.56;5107673;28;20043;-73
2022/10/06 05:19:01;;;;;;;13.07;6.68;;;;;;;10.19;78.65;99779.91;5091231;28;20039;-73
2022/10/06 05:21:29;;;;;;;14.00;7.15;;;;;;;10.12;78.77;99774.81;5106229;28;20063;-72
2022/10/06 05:23:57;;;;;;;11.82;7.40;;;;;;;10.20;78.94;99776.06;5076794;28;20400;-73
2022/10/06 05:26:27;;;;;;;18.63;11.15;;;;;;;10.31;78.70;99776.72;5112136;28;20047;-72
2022/10/06 05:28:54;;;;;;;14.65;8.50;;;;;;;10.28;78.71;99777.34;5113262;28;20514;-73
2022/10/06 05:31:27;;;;;;;15.55;7.53;;;;;;;10.28;78.78;99778.13;5093972;28;20400;-72
2022/10/06 05:33:56;;;;;;;12.98;7.47;;;;;;;10.35;78.74;99775.81;5093661;28;20063;-73
2022/10/06 05:36:28;;;;;;;12.80;7.32;;;;;;;10.30;78.36;99777.84;5093883;28;20444;-76
2022/10/06 05:38:57;;;;;;;14.68;7.35;;;;;;;10.33;78.42;99778.06;5093415;28;20040;-73
2022/10/06 05:41:28;;;;;;;13.98;8.55;;;;;;;10.33;78.38;99777.22;5108778;28;20042;-73
2022/10/06 05:43:57;;;;;;;21.67;12.52;;;;;;;10.30;78.36;99784.13;5113978;28;20149;-83
2022/10/06 05:46:29;;;;;;;16.90;9.15;;;;;;;10.23;78.92;99789.13;5132488;28;20031;-72
2022/10/06 05:48:59;;;;;;;15.02;8.40;;;;;;;10.24;79.35;99781.75;5132159;28;20069;-72
2022/10/06 05:51:31;;;;;;;20.75;10.93;;;;;;;10.33;79.25;99782.69;5113687;28;20074;-72
2022/10/06 05:53:59;;;;;;;14.40;8.60;;;;;;;10.21;79.17;99787.81;5111633;28;20051;-72
2022/10/06 05:56:30;;;;;;;12.73;7.85;;;;;;;10.18;79.45;99782.94;5114938;28;20568;-72
2022/10/06 05:58:58;;;;;;;19.77;11.75;;;;;;;10.18;79.45;99782.94;5097253;28;20301;-77
2022/10/06 06:01:34;;;;;;;14.95;9.32;;;;;;;10.23;79.80;99780.94;5129398;27;20066;-73
2022/10/06 06:06:39;;;;;;;27.98;17.15;;;;;;;10.32;79.82;99801.00;5136055;27;20067;-72
2022/10/06 06:09:12;;;;;;;50.38;29.23;;;;;;;10.33;80.00;99788.16;5117552;27;20073;-81
2022/10/06 06:11:44;;;;;;;42.55;24.08;;;;;;;10.33;80.25;99779.97;5115324;27;20035;-73
2022/10/06 06:14:13;;;;;;;44.92;25.65;;;;;;;10.33;80.30;99785.41;5117640;27;20065;-72
2022/10/06 06:16:41;;;;;;;19.40;10.27;;;;;;;10.35;80.59;99791.41;5117346;27;20046;-73
2022/10/06 06:19:09;;;;;;;62.90;33.35;;;;;;;10.37;80.19;99788.41;5117182;27;20046;-73
2022/10/06 06:21:38;;;;;;;29.83;14.75;;;;;;;10.31;80.01;99777.53;5132931;27;20408;-72
2022/10/06 06:26:35;;;;;;;29.77;11.60;;;;;;;10.47;79.66;99793.69;5135639;27;20085;-72
2022/10/06 06:29:05;;;;;;;17.70;9.15;;;;;;;10.48;79.84;99785.16;5135590;27;20122;-73
2022/10/06 06:31:37;;;;;;;54.83;23.48;;;;;;;10.56;80.11;99789.97;5128290;27;20039;-72
2022/10/06 06:34:06;;;;;;;39.42;18.65;;;;;;;10.63;80.08;99791.47;5114974;28;20089;-72
2022/10/06 06:36:39;;;;;;;15.68;8.15;;;;;;;10.61;79.66;99785.50;5114785;28;20050;-72
2022/10/06 06:39:10;;;;;;;17.98;8.25;;;;;;;10.62;79.52;99782.44;5114874;28;20097;-72
2022/10/06 06:41:40;;;;;;;14.23;8.15;;;;;;;10.64;79.17;99784.91;5096464;28;20493;-72
2022/10/06 06:44:18;;;;;;;15.40;7.60;;;;;;;10.66;79.17;99782.66;5096367;28;20104;-84
2022/10/06 06:46:51;;;;;;;19.15;8.43;;;;;;;10.76;79.28;99787.94;5096363;28;20035;-72
2022/10/06 06:51:51;;;;;;;21.33;13.02;;;;;;;10.91;79.21;99784.91;5114895;27;19920;-72
2022/10/06 06:54:19;;;;;;;18.45;9.20;;;;;;;10.95;78.66;99791.41;5114353;28;20036;-73
2022/10/06 06:56:50;;;;;;;25.73;12.73;;;;;;;10.97;78.36;99793.84;5114201;28;20439;-72
2022/10/06 06:59:19;;;;;;;18.98;11.57;;;;;;;10.95;78.42;99794.13;5114144;28;20047;-74
2022/10/06 07:04:17;;;;;;;21.27;9.88;;;;;;;10.93;78.31;99787.38;5134385;27;20575;-76
2022/10/06 07:09:13;;;;;;;25.05;11.45;;;;;;;11.10;78.04;99786.75;5134980;27;20419;-72
2022/10/06 07:11:40;;;;;;;17.30;8.65;;;;;;;11.09;78.12;99783.19;5135720;27;20416;-72
2022/10/06 07:14:14;;;;;;;18.25;8.90;;;;;;;11.16;78.29;99786.34;5116248;27;20051;-72
2022/10/06 07:25:29;;;;;;;22.45;11.02;;;;;;;11.27;78.01;99778.72;5116326;27;20424;-72
2022/10/06 07:28:01;;;;;;;21.75;10.02;;;;;;;11.27;77.56;99782.25;5134285;27;20043;-74
2022/10/06 07:33:08;;;;;;;17.63;8.75;;;;;;;11.28;77.71;99783.06;5134205;27;20101;-72
2022/10/06 07:35:38;;;;;;;18.25;8.18;;;;;;;11.29;78.09;99784.69;5116064;27;20046;-74
2022/10/06 07:38:06;;;;;;;16.30;8.25;;;;;;;11.27;78.30;99765.03;5098630;27;20508;-72
2022/10/06 07:40:37;;;;;;;14.00;7.80;;;;;;;11.41;78.09;99773.22;5114838;27;20039;-72
2022/10/06 07:43:06;;;;;;;14.75;6.60;;;;;;;11.38;77.83;99777.38;5078140;28;20381;-72
2022/10/06 07:45:45;;;;;;;14.15;6.32;;;;;;;11.48;77.81;99765.41;5094921;28;20051;-72
2022/10/06 07:48:23;;;;;;;13.18;6.28;;;;;;;11.59;77.67;99768.72;5095106;28;20036;-72
2022/10/06 07:51:01;;;;;;;13.80;7.18;;;;;;;11.72;77.25;99773.34;5131228;27;20088;-74
2022/10/06 07:53:34;;;;;;;10.80;6.50;;;;;;;11.76;76.71;99766.13;5115538;27;20070;-76
2022/10/06 07:56:10;;;;;;;13.15;6.95;;;;;;;11.86;76.63;99774.16;5115364;27;20035;-73
2022/10/06 07:58:40;;;;;;;15.07;7.00;;;;;;;11.84;76.38;99767.31;5115379;27;20043;-73
2022/10/06 08:01:09;;;;;;;13.40;7.40;;;;;;;11.77;76.39;99774.03;5112966;27;20046;-76
2022/10/06 08:03:37;;;;;;;14.23;7.95;;;;;;;11.83;76.72;99766.50;5133482;27;20038;-72
2022/10/06 08:06:11;;;;;;;9.95;6.70;;;;;;;11.87;76.41;99764.00;5133738;27;20415;-80
2022/10/06 08:08:37;;;;;;;9.30;6.50;;;;;;;11.84;76.10;99761.84;5133674;27;20049;-72
2022/10/06 08:11:05;;;;;;;9.73;6.50;;;;;;;11.85;76.19;99760.75;5131097;27;20035;-73
2022/10/06 08:13:31;;;;;;;11.43;6.88;;;;;;;11.91;76.14;99762.25;5133396;27;20557;-72
2022/10/06 08:16:10;;;;;;;12.05;6.65;;;;;;;11.89;76.27;99759.03;5133396;27;20039;-72
2022/10/06 08:18:37;;;;;;;12.88;6.80;;;;;;;11.92;76.04;99761.94;5132635;27;20067;-72
2022/10/06 08:21:15;;;;;;;16.05;6.88;;;;;;;11.97;75.82;99759.06;5131036;27;20054;-73
2022/10/06 08:23:42;;;;;;;11.65;6.72;;;;;;;11.95;75.21;99755.84;5133281;27;20046;-78
2022/10/06 08:26:10;;;;;;;13.00;6.57;;;;;;;11.92;75.73;99758.38;5114741;27;20121;-72
2022/10/06 08:28:37;;;;;;;10.57;6.53;;;;;;;11.96;75.54;99759.41;5133092;27;20038;-73
2022/10/06 08:31:10;;;;;;;11.57;6.47;;;;;;;12.04;75.57;99763.31;5126534;27;20031;-83
2022/10/06 08:33:41;;;;;;;12.95;6.95;;;;;;;12.11;75.48;99748.03;5112791;28;20123;-72
2022/10/06 08:36:18;;;;;;;12.32;6.55;;;;;;;12.34;75.31;99753.50;5112533;28;20031;-77
2022/10/06 08:38:49;;;;;;;8.57;6.05;;;;;;;12.43;74.55;99752.44;5094343;28;20047;-73
2022/10/06 08:41:23;;;;;;;10.20;6.57;;;;;;;12.46;74.03;99753.75;5094609;28;20058;-72
2022/10/06 08:44:18;;;;;;;14.32;5.80;;;;;;;12.56;73.61;99753.47;5122593;27;20031;-73
2022/10/06 08:47:12;;;;;;;8.60;5.82;;;;;;;12.59;73.75;99758.31;5120811;27;20055;-72
2022/10/06 08:49:45;;;;;;;12.98;6.10;;;;;;;12.59;74.02;99758.31;5132608;27;20062;-74
2022/10/06 08:52:27;;;;;;;9.18;5.88;;;;;;;12.61;73.30;99761.53;5122115;27;20051;-75
2022/10/06 08:55:09;;;;;;;8.15;6.20;;;;;;;12.62;72.99;99762.38;5094105;28;20039;-75
2022/10/06 08:58:04;;;;;;;7.32;5.35;;;;;;;12.58;73.01;99759.47;5093848;28;20047;-75
2022/10/06 09:00:32;;;;;;;9.75;5.75;;;;;;;12.58;73.64;99758.63;5094153;28;20044;-75
2022/10/06 09:03:01;;;;;;;8.07;5.38;;;;;;;12.50;73.52;99760.22;5124608;27;20042;-74
2022/10/06 09:05:30;;;;;;;12.38;6.45;;;;;;;12.54;73.14;99765.88;5132641;27;20050;-74
2022/10/06 09:08:18;;;;;;;13.68;6.93;;;;;;;12.55;73.75;99771.06;5132656;28;20097;-83
2022/10/06 09:11:30;;;;;;;9.10;6.13;;;;;;;12.53;73.63;99775.22;5114370;28;20064;-74
2022/10/06 09:14:16;;;;;;;10.13;6.32;;;;;;;12.45;74.12;99769.38;5120390;28;20074;-75
2022/10/06 09:16:47;;;;;;;10.43;6.33;;;;;;;12.35;74.08;99749.63;5114196;28;20035;-74
2022/10/06 09:19:25;;;;;;;9.98;6.35;;;;;;;12.37;74.30;99767.41;5132474;28;20047;-73
2022/10/06 09:21:53;;;;;;;10.75;6.07;;;;;;;12.41;74.46;99767.56;5132463;28;20055;-74
2022/10/06 09:24:25;;;;;;;11.43;6.97;;;;;;;12.38;74.25;99776.41;5130968;28;20041;-73
2022/10/06 09:29:20;;;;;;;133.68;31.73;;;;;;;12.30;74.46;99764.28;5132315;27;20041;-74
2022/10/06 09:31:49;;;;;;;98.50;29.17;;;;;;;12.35;75.01;99779.78;5136450;27;20168;-79
2022/10/06 09:34:24;;;;;;;18.27;8.75;;;;;;;12.42;75.29;99774.69;5134505;27;20143;-74
2022/10/06 09:36:59;;;;;;;11.73;7.10;;;;;;;12.39;74.76;99783.53;5136283;27;20459;-74
2022/10/06 09:39:31;;;;;;;12.10;7.20;;;;;;;12.44;74.93;99775.97;5135928;27;20039;-73
2022/10/06 09:42:02;;;;;;;11.95;7.60;;;;;;;12.43;74.90;99771.63;5136417;27;20046;-73
2022/10/06 09:44:33;;;;;;;15.35;7.30;;;;;;;12.44;75.23;99780.66;5134386;27;20035;-73
2022/10/06 09:47:00;;;;;;;12.82;7.95;;;;;;;12.48;74.98;99784.38;5117550;27;20423;-73
2022/10/06 09:49:30;;;;;;;13.27;7.93;;;;;;;12.50;75.32;99778.59;5136163;27;20043;-72
2022/10/06 09:52:14;;;;;;;14.02;7.60;;;;;;;12.44;74.65;99775.16;5135998;27;20116;-73
2022/10/06 09:54:42;;;;;;;11.07;6.65;;;;;;;12.43;75.38;99765.34;5112739;28;20047;-82
2022/10/06 09:57:14;;;;;;;10.55;7.30;;;;;;;12.43;74.85;99777.09;5112801;28;20040;-78
2022/10/06 09:59:43;;;;;;;10.32;6.22;;;;;;;12.51;75.12;99771.97;5112703;28;20099;-74
2022/10/06 10:02:42;;;;;;;16.48;7.07;;;;;;;12.50;74.57;99762.94;5113014;28;20051;-81
2022/10/06 10:05:22;;;;;;;12.88;7.13;;;;;;;12.61;75.14;99767.03;5039202;28;20064;-84
2022/10/06 10:08:01;;;;;;;11.02;7.40;;;;;;;12.62;74.54;99765.13;5050485;28;20143;-84
2022/10/06 10:10:29;;;;;;;11.75;7.13;;;;;;;12.63;74.53;99774.97;5033623;28;20383;-82
2022/10/06 10:12:58;;;;;;;14.18;7.78;;;;;;;12.61;74.74;99763.47;5050874;28;20121;-73
2022/10/06 10:15:39;;;;;;;11.93;7.57;;;;;;;12.66;74.51;99761.41;5051820;28;20552;-73
2022/10/06 10:18:15;;;;;;;11.57;7.07;;;;;;;12.86;74.53;99762.78;5034682;28;20103;-73
2022/10/06 10:21:07;;;;;;;14.48;7.45;;;;;;;12.97;74.21;99757.00;5051821;28;20041;-73
2022/10/06 10:23:38;;;;;;;13.63;7.50;;;;;;;13.01;74.04;99730.53;5035474;28;20044;-73
2022/10/06 10:26:16;;;;;;;10.88;6.72;;;;;;;13.26;73.56;99749.06;5034953;28;20040;-72
2022/10/06 10:29:19;;;;;;;12.52;7.30;;;;;;;13.39;73.65;99752.78;5035291;28;20049;-73
2022/10/06 10:32:11;;;;;;;14.35;7.43;;;;;;;13.34;72.61;99748.28;5050116;28;20040;-78
2022/10/06 10:34:57;;;;;;;11.52;7.30;;;;;;;13.33;72.59;99754.06;5048906;28;20045;-79
2022/10/06 10:37:44;;;;;;;;;;;;;;;13.35;72.21;99752.63;5050425;28;20199;-76
2022/10/06 10:40:34;;;;;;;13.98;7.82;;;;;;;13.31;72.38;99746.16;5063130;28;19919;-80
2022/10/06 10:43:03;;;;;;;12.10;7.70;;;;;;;13.44;72.73;99751.81;5112199;28;20050;-81
2022/10/06 10:45:35;;;;;;;10.93;7.20;;;;;;;13.55;72.76;99753.13;5111121;27;20036;-77
2022/10/06 10:48:10;;;;;;;15.05;6.65;;;;;;;13.53;71.39;99749.91;5127193;27;20039;-74
2022/10/06 10:51:08;;;;;;;16.90;8.30;;;;;;;13.57;71.59;99745.38;5130093;27;20039;-74
2022/10/06 10:54:00;;;;;;;12.20;7.60;;;;;;;13.59;71.80;99743.91;5096412;27;20054;-78
2022/10/06 10:56:30;;;;;;;18.75;8.18;;;;;;;13.59;71.17;99749.41;5131827;27;20032;-77
2022/10/06 10:59:13;;;;;;;22.70;8.40;;;;;;;13.53;70.80;99736.97;5106614;27;20038;-77
2022/10/06 11:01:57;;;;;;;18.92;8.00;;;;;;;13.60;70.67;99744.72;5105256;28;20039;-78
2022/10/06 11:04:26;;;;;;;14.48;7.97;;;;;;;13.49;70.41;99738.75;5111883;27;20131;-76
2022/10/06 11:07:05;;;;;;;19.15;7.80;;;;;;;13.63;71.07;99755.06;5111556;28;20678;-75
2022/10/06 11:10:12;;;;;;;15.82;8.15;;;;;;;13.76;70.88;99751.34;5122454;27;20121;-77
2022/10/06 11:13:03;;;;;;;16.40;7.95;;;;;;;13.89;70.41;99751.53;5131696;27;20544;-77
2022/10/06 11:15:38;;;;;;;17.40;8.25;;;;;;;13.94;69.62;99749.44;5118100;27;20044;-77
2022/10/06 11:18:32;;;;;;;14.50;8.13;;;;;;;13.88;69.26;99745.22;5127230;27;20059;-77
2022/10/06 11:21:18;;;;;;;13.43;7.90;;;;;;;13.92;69.59;99739.88;5111136;27;20116;-77
2022/10/06 11:24:05;;;;;;;14.43;8.13;;;;;;;13.82;69.13;99747.31;5111275;28;20071;-74
2022/10/06 11:26:40;;;;;;;16.48;8.75;;;;;;;13.74;69.95;99748.13;5111728;27;20045;-75
2022/10/06 11:29:38;;;;;;;16.42;8.90;;;;;;;13.58;70.15;99752.50;5126668;27;20039;-77
2022/10/06 11:32:31;;;;;;;14.73;8.55;;;;;;;13.59;70.48;99759.59;5115764;27;20128;-77
2022/10/06 11:34:58;;;;;;;18.08;9.00;;;;;;;13.64;70.69;99748.44;5110789;27;20047;-78
2022/10/06 11:38:01;;;;;;;16.23;8.90;;;;;;;13.71;70.51;99740.53;5130928;27;20496;-77
2022/10/06 11:40:40;;;;;;;18.60;9.27;;;;;;;13.62;70.48;99737.78;5073631;27;20051;-77
2022/10/06 11:43:11;;;;;;;17.63;9.32;;;;;;;13.66;70.76;99737.13;5131191;27;20512;-77
2022/10/06 11:45:53;;;;;;;22.90;9.57;;;;;;;13.78;70.85;99746.34;5108787;28;20051;-78
2022/10/06 11:48:28;;;;;;;14.50;8.45;;;;;;;13.72;70.14;99738.59;5110683;28;20043;-77
2022/10/06 11:51:16;;;;;;;15.95;9.02;;;;;;;13.81;70.59;99739.41;5110927;28;20043;-85
2022/10/06 11:53:44;;;;;;;17.75;9.85;;;;;;;13.81;70.63;99744.91;5108775;28;20050;-83
2022/10/06 11:56:16;;;;;;;18.95;9.63;;;;;;;13.82;70.80;99752.00;5115482;27;20103;-84
2022/10/06 11:58:54;;;;;;;23.48;10.80;;;;;;;13.82;71.12;99761.06;5130944;27;20039;-75
2022/10/06 12:01:30;;;;;;;17.02;9.38;;;;;;;13.75;70.60;99744.25;5131206;27;20641;-84
2022/10/06 12:04:15;;;;;;;18.90;9.20;;;;;;;13.67;71.37;99745.03;5130981;27;20523;-82
2022/10/06 12:06:50;;;;;;;18.17;8.98;;;;;;;13.73;71.12;99745.69;5130230;27;20188;-85
2022/10/06 12:09:31;;;;;;;17.55;9.23;;;;;;;13.68;71.09;99740.38;5112153;27;20070;-83
2022/10/06 12:12:13;;;;;;;14.52;9.13;;;;;;;13.66;71.70;99742.63;5130811;27;20555;-78
2022/10/06 12:14:53;;;;;;;17.48;9.15;;;;;;;13.65;71.88;99732.78;5131186;27;20039;-82
2022/10/06 12:17:53;;;;;;;14.68;8.95;;;;;;;13.65;71.89;99743.78;5129214;27;20113;-81
2022/10/06 12:20:33;;;;;;;17.48;9.45;;;;;;;13.64;72.25;99737.44;5094873;27;20142;-78
2022/10/06 12:23:08;;;;;;;16.58;9.05;;;;;;;13.74;72.21;99748.13;5130695;27;20095;-78
2022/10/06 12:25:37;;;;;;;15.77;8.70;;;;;;;13.74;71.82;99741.81;5130792;27;20050;-79
2022/10/06 12:28:27;;;;;;;13.75;8.60;;;;;;;13.83;71.66;99746.19;5103061;28;20048;-83
2022/10/06 12:31:04;;;;;;;17.85;8.85;;;;;;;13.96;71.90;99738.09;5095023;28;20054;-82
2022/10/06 12:33:39;;;;;;;14.30;8.57;;;;;;;13.90;71.10;99736.63;5110266;28;20046;-79
2022/10/06 12:36:28;;;;;;;17.05;9.10;;;;;;;13.83;71.41;99743.44;5091695;28;20047;-80
2022/10/06 12:39:04;;;;;;;14.40;9.30;;;;;;;13.93;71.39;99756.03;5122438;27;20451;-77
2022/10/06 12:42:02;;;;;;;21.92;9.05;;;;;;;13.92;71.50;99745.38;5130264;27;20043;-77
2022/10/06 12:44:44;;;;;;;19.63;10.02;;;;;;;13.86;71.77;99725.50;5130268;27;20043;-77
2022/10/06 12:47:28;;;;;;;17.55;9.57;;;;;;;13.98;71.36;99727.59;5111896;27;20098;-69
2022/10/06 12:50:08;;;;;;;18.67;9.30;;;;;;;13.94;71.72;99715.59;5110782;27;20047;-71
2022/10/06 12:53:04;;;;;;;25.55;8.80;;;;;;;14.04;72.19;99718.84;5109715;28;20040;-70
2022/10/06 12:55:44;;;;;;;18.20;8.98;;;;;;;14.00;71.74;99703.31;5109242;28;20036;-74
2022/10/06 12:58:32;;;;;;;13.18;9.23;;;;;;;14.02;71.59;99720.31;5109624;28;20074;-77
2022/10/06 13:01:01;;;;;;;19.95;8.82;;;;;;;14.00;71.41;99715.13;5130163;27;20039;-91
2022/10/06 13:03:30;;;;;;;17.85;8.95;;;;;;;14.08;71.60;99719.00;5130486;27;20039;-82
2022/10/06 13:06:05;;;;;;;17.58;8.60;;;;;;;14.01;71.27;99719.50;5130173;27;20035;-77
2022/10/06 13:08:33;;;;;;;17.20;8.45;;;;;;;13.93;70.65;99719.50;5129760;27;20488;-77
2022/10/06 13:11:15;;;;;;;16.15;8.75;;;;;;;13.90;70.60;99714.66;5124813;28;20436;-77
2022/10/06 13:13:50;;;;;;;17.58;9.50;;;;;;;13.82;70.60;99708.03;5112239;28;20043;-77
2022/10/06 13:16:22;;;;;;;14.68;9.07;;;;;;;13.75;70.86;99714.03;5074033;28;20125;-75
2022/10/06 13:18:53;;;;;;;15.02;8.18;;;;;;;13.75;70.11;99711.28;5095586;28;20096;-74
2022/10/06 13:21:20;;;;;;;27.45;10.05;;;;;;;13.69;70.50;99700.78;5110112;28;20059;-76
2022/10/06 13:23:47;;;;;;;18.67;10.63;;;;;;;13.62;70.59;99712.25;5090673;28;20088;-74
2022/10/06 13:26:24;;;;;;;21.65;10.40;;;;;;;13.59;70.19;99715.66;5127439;28;20324;-74
2022/10/06 13:28:53;;;;;;;20.85;10.20;;;;;;;13.53;70.43;99716.94;5106075;28;20043;-73
2022/10/06 13:31:27;;;;;;;19.88;9.82;;;;;;;13.45;70.33;99710.31;5121948;28;20031;-74
2022/10/06 13:34:03;;;;;;;15.25;9.10;;;;;;;13.42;70.45;99701.91;5128257;28;20681;-76
2022/10/06 13:36:33;;;;;;;18.95;9.10;;;;;;;13.48;70.23;99706.94;5109964;28;20138;-75
2022/10/06 13:39:02;;;;;;;16.08;8.82;;;;;;;13.48;70.63;99706.94;5128120;28;20122;-75
2022/10/06 13:41:36;;;;;;;21.45;9.90;;;;;;;13.45;70.00;99704.03;5121800;28;20035;-76
2022/10/06 13:44:17;;;;;;;20.30;10.55;;;;;;;13.39;70.69;99715.16;5105977;28;20043;-82
2022/10/06 13:46:54;;;;;;;22.10;9.70;;;;;;;13.31;70.67;99715.97;5072741;28;20091;-82
2022/10/06 13:49:30;;;;;;;21.50;9.27;;;;;;;13.27;70.91;99711.41;5126497;28;20038;-82
2022/10/06 13:52:00;;;;;;;17.13;9.20;;;;;;;13.25;70.91;99724.69;5128055;28;20048;-82